Time;durP1;ratioP1;P1;durP2;ratioP2;P2;SDS_P1;SDS_P2;PMS_P1;PMS_P2;Temp;Humidity;BMP_temperature;BMP_pressure;BME280_temperature;BME280_humidity;BME280_pressure;Samples;Min_cycle;Max_cycle;Signal;HPM_P1;HPM_P2
2023/03/21 00:00:26;;;;;;;118.50;32.25;;;;;;;;;;4983966;28;20041;-80
2023/03/21 00:02:52;;;;;;;108.45;32.63;;;;;;;;;;5001783;28;20048;-80
2023/03/21 00:05:19;;;;;;;119.28;33.30;;;;;;;;;;4968014;28;20061;-80
2023/03/21 00:07:46;;;;;;;113.15;31.98;;;;;;;;;;5001276;28;20050;-79
2023/03/21 00:10:12;;;;;;;121.30;33.75;;;;;;;;;;4992536;28;20046;-79
2023/03/21 00:12:38;;;;;;;112.47;32.80;;;;;;;;;;5000946;28;20037;-79
2023/03/21 00:15:08;;;;;;;104.57;31.80;;;;;;;;;;5023745;28;20033;-79
2023/03/21 00:17:35;;;;;;;106.00;30.75;;;;;;;;;;4989032;28;20080;-78
2023/03/21 00:20:04;;;;;;;98.35;29.25;;;;;;;;;;4991373;28;20055;-78
2023/03/21 00:22:30;;;;;;;82.68;26.55;;;;;;;;;;4999241;28;20053;-79
2023/03/21 00:24:57;;;;;;;94.60;27.88;;;;;;;;;;4998515;28;20053;-80
2023/03/21 00:27:23;;;;;;;88.68;27.38;;;;;;;;;;4984040;28;20545;-79
2023/03/21 00:29:49;;;;;;;86.05;27.30;;;;;;;;;;4983577;28;20046;-80
2023/03/21 00:32:16;;;;;;;94.90;27.50;;;;;;;;;;4963957;28;20045;-80
2023/03/21 00:34:42;;;;;;;84.57;27.48;;;;;;;;;;5000826;28;20115;-79
2023/03/21 00:37:10;;;;;;;87.90;26.65;;;;;;;;;;4985836;28;20047;-80
2023/03/21 00:39:37;;;;;;;80.18;26.73;;;;;;;;;;4999632;28;20050;-79
2023/03/21 00:42:03;;;;;;;80.15;25.88;;;;;;;;;;4984810;28;20041;-79
2023/03/21 00:44:35;;;;;;;88.03;27.83;;;;;;;;;;4990431;28;20175;-79
2023/03/21 00:47:02;;;;;;;71.30;25.63;;;;;;;;;;4988122;28;20049;-80
2023/03/21 00:49:32;;;;;;;85.00;25.80;;;;;;;;;;5001387;28;20044;-80
2023/03/21 00:51:59;;;;;;;72.07;24.92;;;;;;;;;;4982126;28;20095;-80
2023/03/21 00:54:25;;;;;;;73.90;24.13;;;;;;;;;;4963933;28;20037;-79
2023/03/21 00:56:52;;;;;;;74.43;23.88;;;;;;;;;;4997952;28;20092;-79
2023/03/21 00:59:18;;;;;;;68.45;23.00;;;;;;;;;;4996219;28;20045;-80
2023/03/21 01:01:45;;;;;;;75.00;24.60;;;;;;;;;;4988962;28;20053;-80
2023/03/21 01:04:13;;;;;;;72.50;25.02;;;;;;;;;;5010174;28;20041;-80
2023/03/21 01:06:40;;;;;;;69.15;23.80;;;;;;;;;;5006850;28;20124;-80
2023/03/21 01:09:15;;;;;;;66.68;23.40;;;;;;;;;;4994269;28;20088;-79
2023/03/21 01:11:42;;;;;;;77.88;23.33;;;;;;;;;;4998377;28;20045;-80
2023/03/21 01:14:08;;;;;;;64.25;21.23;;;;;;;;;;5009209;28;20091;-80
2023/03/21 01:16:35;;;;;;;66.97;22.38;;;;;;;;;;5009183;28;20041;-80
2023/03/21 01:19:01;;;;;;;64.03;23.67;;;;;;;;;;4993976;28;20148;-79
2023/03/21 01:21:27;;;;;;;65.75;21.55;;;;;;;;;;4997338;28;20245;-80
2023/03/21 01:23:54;;;;;;;61.78;20.30;;;;;;;;;;4978803;28;20041;-79
2023/03/21 01:26:20;;;;;;;56.85;21.40;;;;;;;;;;4981660;28;20052;-79
2023/03/21 01:28:46;;;;;;;52.75;20.77;;;;;;;;;;4997529;28;20452;-80
2023/03/21 01:31:14;;;;;;;62.67;22.13;;;;;;;;;;4999626;28;20057;-80
2023/03/21 01:33:40;;;;;;;56.03;20.23;;;;;;;;;;4990671;28;20040;-80
2023/03/21 01:36:07;;;;;;;53.60;19.05;;;;;;;;;;4997984;28;20041;-80
2023/03/21 01:38:33;;;;;;;64.53;20.60;;;;;;;;;;4995562;28;20045;-80
2023/03/21 01:41:01;;;;;;;66.05;20.63;;;;;;;;;;4993465;28;20520;-81
2023/03/21 01:43:29;;;;;;;68.10;22.77;;;;;;;;;;5009280;28;20482;-80
2023/03/21 01:46:19;;;;;;;77.72;22.30;;;;;;;;;;5009151;28;20053;-80
2023/03/21 01:48:48;;;;;;;79.07;23.00;;;;;;;;;;4991486;28;20052;-81
2023/03/21 01:51:14;;;;;;;79.60;22.13;;;;;;;;;;5008652;28;20040;-81
2023/03/21 01:53:41;;;;;;;95.20;24.45;;;;;;;;;;5009878;28;20046;-80
2023/03/21 01:56:12;;;;;;;87.95;24.15;;;;;;;;;;5019009;28;20045;-80
2023/03/21 01:58:39;;;;;;;87.97;22.20;;;;;;;;;;5024307;28;20044;-80
2023/03/21 02:01:06;;;;;;;107.00;25.80;;;;;;;;;;5021164;28;20095;-80
2023/03/21 02:03:37;;;;;;;116.85;26.00;;;;;;;;;;4997066;28;20041;-79
2023/03/21 02:06:06;;;;;;;138.80;28.33;;;;;;;;;;4995590;28;20728;-79
2023/03/21 02:08:32;;;;;;;136.65;27.48;;;;;;;;;;5005672;28;20056;-80
2023/03/21 02:10:58;;;;;;;163.73;32.00;;;;;;;;;;5005523;28;20041;-80
2023/03/21 02:13:24;;;;;;;181.40;33.08;;;;;;;;;;5005832;28;20504;-80
2023/03/21 02:16:14;;;;;;;162.85;31.45;;;;;;;;;;4992475;28;21871;-80
2023/03/21 02:18:59;;;;;;;178.80;31.50;;;;;;;;;;5012731;28;20049;-81
2023/03/21 02:21:42;;;;;;;183.93;33.20;;;;;;;;;;4992796;28;20045;-80
2023/03/21 02:24:11;;;;;;;200.02;33.47;;;;;;;;;;5005023;28;20045;-81
2023/03/21 02:26:40;;;;;;;177.48;30.63;;;;;;;;;;5006749;28;20509;-81
2023/03/21 02:29:15;;;;;;;184.05;30.55;;;;;;;;;;4994989;28;20481;-80
2023/03/21 02:31:45;;;;;;;160.80;32.28;;;;;;;;;;4994666;28;20041;-80
2023/03/21 02:34:26;;;;;;;173.27;32.47;;;;;;;;;;4993446;28;20708;-80
2023/03/21 02:36:55;;;;;;;163.43;31.65;;;;;;;;;;5007489;28;20047;-80
2023/03/21 02:39:29;;;;;;;162.90;33.55;;;;;;;;;;4990207;28;20072;-80
2023/03/21 02:41:55;;;;;;;128.25;28.50;;;;;;;;;;5009536;28;20059;-80
2023/03/21 02:44:40;;;;;;;132.18;28.30;;;;;;;;;;4999848;28;20136;-80
2023/03/21 02:47:35;;;;;;;116.85;27.30;;;;;;;;;;4992633;28;20168;-81
2023/03/21 02:50:04;;;;;;;122.75;24.85;;;;;;;;;;5003333;28;20981;-80
2023/03/21 02:52:33;;;;;;;115.00;26.20;;;;;;;;;;4998609;28;20076;-80
2023/03/21 02:55:00;;;;;;;121.78;26.90;;;;;;;;;;5011457;28;20037;-80
2023/03/21 02:57:26;;;;;;;130.45;29.27;;;;;;;;;;4993954;28;21368;-80
2023/03/21 02:59:52;;;;;;;123.20;29.70;;;;;;;;;;5014978;28;20573;-80
2023/03/21 03:02:21;;;;;;;129.20;29.00;;;;;;;;;;5011138;28;20041;-80
2023/03/21 03:04:47;;;;;;;148.18;31.13;;;;;;;;;;5007847;28;20045;-81
2023/03/21 03:07:25;;;;;;;123.47;30.02;;;;;;;;;;5001898;28;20128;-80
2023/03/21 03:10:04;;;;;;;128.32;29.30;;;;;;;;;;4999680;28;20447;-81
2023/03/21 03:12:36;;;;;;;128.27;29.60;;;;;;;;;;4996152;28;20048;-81
2023/03/21 03:15:03;;;;;;;132.88;30.60;;;;;;;;;;4996892;28;22040;-80
2023/03/21 03:17:29;;;;;;;139.55;31.05;;;;;;;;;;5005757;28;20108;-80
2023/03/21 03:19:55;;;;;;;125.20;30.73;;;;;;;;;;5011313;28;20124;-80
2023/03/21 03:22:25;;;;;;;126.32;29.33;;;;;;;;;;4999249;28;20045;-80
2023/03/21 03:25:05;;;;;;;121.75;30.55;;;;;;;;;;5012921;28;20056;-80
2023/03/21 03:27:40;;;;;;;108.18;28.40;;;;;;;;;;5003430;28;21210;-80
2023/03/21 03:30:08;;;;;;;107.80;27.80;;;;;;;;;;4995056;28;20045;-80
2023/03/21 03:32:45;;;;;;;106.57;28.63;;;;;;;;;;4976037;28;20065;-80
2023/03/21 03:35:13;;;;;;;101.10;29.70;;;;;;;;;;4991330;28;20405;-80
2023/03/21 03:37:40;;;;;;;100.03;31.25;;;;;;;;;;4981185;28;22329;-80
2023/03/21 03:40:15;;;;;;;102.28;31.77;;;;;;;;;;5003439;28;20041;-80
2023/03/21 03:42:45;;;;;;;106.25;31.23;;;;;;;;;;5007076;28;20517;-79
2023/03/21 03:45:11;;;;;;;104.30;32.08;;;;;;;;;;5017724;28;20041;-80
2023/03/21 03:47:37;;;;;;;112.90;32.83;;;;;;;;;;4975521;28;20045;-79
2023/03/21 03:50:08;;;;;;;104.50;28.95;;;;;;;;;;5013970;28;20045;-80
2023/03/21 03:52:44;;;;;;;98.93;32.92;;;;;;;;;;4984906;28;20048;-80
2023/03/21 03:55:11;;;;;;;98.70;32.30;;;;;;;;;;4999611;28;20048;-81
2023/03/21 03:57:38;;;;;;;91.70;29.38;;;;;;;;;;4982405;28;20144;-80
2023/03/21 04:00:10;;;;;;;98.40;33.22;;;;;;;;;;4984958;28;20043;-81
2023/03/21 04:02:36;;;;;;;94.57;32.25;;;;;;;;;;4977655;28;20135;-81
2023/03/21 04:05:03;;;;;;;89.28;30.90;;;;;;;;;;5002391;28;22083;-81
2023/03/21 04:07:29;;;;;;;88.38;31.75;;;;;;;;;;4991974;28;20461;-81
2023/03/21 04:09:56;;;;;;;85.40;32.13;;;;;;;;;;5004386;28;20135;-80
2023/03/21 04:12:22;;;;;;;90.30;32.45;;;;;;;;;;4986371;28;20044;-80
2023/03/21 04:14:49;;;;;;;85.18;32.08;;;;;;;;;;4977201;28;20037;-80
2023/03/21 04:17:15;;;;;;;77.43;28.88;;;;;;;;;;4988165;28;20044;-80
2023/03/21 04:19:41;;;;;;;81.47;32.33;;;;;;;;;;5001579;28;20073;-81
2023/03/21 04:22:08;;;;;;;72.03;27.92;;;;;;;;;;5002035;28;20048;-80
2023/03/21 04:24:36;;;;;;;74.15;29.17;;;;;;;;;;4986073;28;20075;-80
2023/03/21 04:27:04;;;;;;;77.20;28.70;;;;;;;;;;4974927;28;20041;-80
2023/03/21 04:29:30;;;;;;;60.65;23.38;;;;;;;;;;4981831;28;20056;-81
2023/03/21 04:31:56;;;;;;;63.95;25.63;;;;;;;;;;5001549;28;20183;-80
2023/03/21 04:34:26;;;;;;;69.47;28.30;;;;;;;;;;4995291;28;20041;-80
2023/03/21 04:36:56;;;;;;;72.00;27.88;;;;;;;;;;4981012;28;20045;-80
2023/03/21 04:39:23;;;;;;;72.50;27.60;;;;;;;;;;4993760;28;20092;-80
2023/03/21 04:41:49;;;;;;;72.93;29.88;;;;;;;;;;5007387;28;20851;-80
2023/03/21 04:44:16;;;;;;;74.57;27.80;;;;;;;;;;5006848;28;20083;-81
2023/03/21 04:46:42;;;;;;;79.60;28.08;;;;;;;;;;4994737;28;22071;-81
2023/03/21 04:49:09;;;;;;;81.60;30.10;;;;;;;;;;4999463;28;20057;-81
2023/03/21 04:51:36;;;;;;;76.38;28.30;;;;;;;;;;5008410;28;20038;-80
2023/03/21 04:54:04;;;;;;;84.07;29.05;;;;;;;;;;5007755;28;20067;-81
2023/03/21 04:56:34;;;;;;;67.65;23.70;;;;;;;;;;5006855;28;20139;-80
2023/03/21 04:59:02;;;;;;;87.72;26.10;;;;;;;;;;4987685;28;20049;-81
2023/03/21 05:01:29;;;;;;;82.75;26.95;;;;;;;;;;5005564;28;20055;-80
2023/03/21 05:03:59;;;;;;;78.15;26.40;;;;;;;;;;5003956;28;20320;-80
2023/03/21 05:06:26;;;;;;;63.80;19.83;;;;;;;;;;4992641;28;22006;-80
2023/03/21 05:08:53;;;;;;;65.65;19.23;;;;;;;;;;5001771;28;20036;-79
2023/03/21 05:11:19;;;;;;;75.82;23.40;;;;;;;;;;5006943;28;20045;-79
2023/03/21 05:13:45;;;;;;;67.30;21.73;;;;;;;;;;4992479;28;20038;-79
2023/03/21 05:16:11;;;;;;;59.13;20.50;;;;;;;;;;4996435;28;20052;-79
2023/03/21 05:18:38;;;;;;;67.80;23.08;;;;;;;;;;4978219;28;20158;-78
2023/03/21 05:21:06;;;;;;;52.50;17.77;;;;;;;;;;5011855;28;20052;-78
2023/03/21 05:23:37;;;;;;;62.15;21.30;;;;;;;;;;5011917;28;20921;-78
2023/03/21 05:26:04;;;;;;;57.38;19.77;;;;;;;;;;4999023;28;20049;-78
2023/03/21 05:28:35;;;;;;;60.22;19.52;;;;;;;;;;5008880;28;20048;-81
2023/03/21 05:31:04;;;;;;;52.67;20.02;;;;;;;;;;5004077;28;20056;-79
2023/03/21 05:33:31;;;;;;;60.33;19.83;;;;;;;;;;5005523;28;20842;-78
2023/03/21 05:35:57;;;;;;;54.03;20.83;;;;;;;;;;5015670;28;20143;-85
2023/03/21 05:38:24;;;;;;;56.35;21.35;;;;;;;;;;5031086;28;20501;-85
2023/03/21 05:40:50;;;;;;;56.75;20.75;;;;;;;;;;5014054;28;20038;-84
2023/03/21 05:43:16;;;;;;;63.25;20.73;;;;;;;;;;5035329;28;20124;-85
2023/03/21 05:45:43;;;;;;;61.92;20.90;;;;;;;;;;5033614;28;20556;-84
2023/03/21 05:48:09;;;;;;;51.35;18.27;;;;;;;;;;5013195;28;20036;-85
2023/03/21 05:50:35;;;;;;;58.92;18.70;;;;;;;;;;5030217;28;20135;-85
2023/03/21 05:53:01;;;;;;;48.20;17.80;;;;;;;;;;5031389;28;20100;-85
2023/03/21 05:55:27;;;;;;;60.22;20.48;;;;;;;;;;5012942;28;21029;-84
2023/03/21 05:57:54;;;;;;;63.42;21.58;;;;;;;;;;5011959;28;20052;-85
2023/03/21 06:00:21;;;;;;;59.95;21.13;;;;;;;;;;5010050;28;20041;-85
2023/03/21 06:02:47;;;;;;;56.53;19.27;;;;;;;;;;5011974;28;20047;-85
2023/03/21 06:05:13;;;;;;;62.92;20.35;;;;;;;;;;5029293;28;20036;-85
2023/03/21 06:07:39;;;;;;;67.43;21.52;;;;;;;;;;5017586;28;20067;-85
2023/03/21 06:10:06;;;;;;;66.35;21.10;;;;;;;;;;5000099;28;20033;-84
2023/03/21 06:12:32;;;;;;;58.85;20.25;;;;;;;;;;5013581;28;20073;-84
2023/03/21 06:14:58;;;;;;;62.22;20.08;;;;;;;;;;5002156;28;20064;-84
2023/03/21 06:17:24;;;;;;;65.32;20.73;;;;;;;;;;5030594;28;20064;-84
2023/03/21 06:19:50;;;;;;;65.78;20.13;;;;;;;;;;5014190;28;21062;-84
2023/03/21 06:22:16;;;;;;;68.90;20.35;;;;;;;;;;5029725;28;20052;-84
2023/03/21 06:24:43;;;;;;;65.43;21.23;;;;;;;;;;4998074;28;20068;-84
2023/03/21 06:27:09;;;;;;;71.15;20.90;;;;;;;;;;5009872;28;20041;-85
2023/03/21 06:29:35;;;;;;;65.75;19.17;;;;;;;;;;4997788;28;20045;-85
2023/03/21 06:32:01;;;;;;;61.55;20.75;;;;;;;;;;5018869;28;20044;-85
2023/03/21 06:34:27;;;;;;;62.17;19.70;;;;;;;;;;5011048;28;20103;-85
2023/03/21 06:36:53;;;;;;;69.13;21.40;;;;;;;;;;5018968;28;20048;-85
2023/03/21 06:39:20;;;;;;;66.70;22.13;;;;;;;;;;5007588;28;20586;-80
2023/03/21 06:41:46;;;;;;;61.88;20.85;;;;;;;;;;5015775;28;20150;-79
2023/03/21 06:44:12;;;;;;;59.83;20.10;;;;;;;;;;5020501;28;20048;-80
2023/03/21 06:46:39;;;;;;;59.88;19.20;;;;;;;;;;5003231;28;20438;-79
2023/03/21 06:49:07;;;;;;;56.83;18.58;;;;;;;;;;5003114;28;20049;-82
2023/03/21 06:51:34;;;;;;;51.17;17.85;;;;;;;;;;5019454;28;20128;-80
2023/03/21 06:54:00;;;;;;;55.20;18.65;;;;;;;;;;5005259;28;20135;-80
2023/03/21 06:56:29;;;;;;;53.78;17.98;;;;;;;;;;5018358;28;20134;-79
2023/03/21 06:58:56;;;;;;;55.13;20.60;;;;;;;;;;5001444;28;20112;-79
2023/03/21 07:01:22;;;;;;;57.53;20.13;;;;;;;;;;5001132;28;22055;-79
2023/03/21 07:03:48;;;;;;;55.55;19.10;;;;;;;;;;5021238;28;20052;-79
2023/03/21 07:06:15;;;;;;;52.28;18.65;;;;;;;;;;5027605;28;20044;-84
2023/03/21 07:08:41;;;;;;;54.80;20.90;;;;;;;;;;5037903;28;20088;-83
2023/03/21 07:11:08;;;;;;;55.53;19.67;;;;;;;;;;5014097;28;20056;-84
2023/03/21 07:13:35;;;;;;;50.08;21.20;;;;;;;;;;5028909;28;21050;-86
2023/03/21 07:16:01;;;;;;;52.65;19.00;;;;;;;;;;5010294;28;21857;-86
2023/03/21 07:18:27;;;;;;;59.40;19.83;;;;;;;;;;5026040;28;20377;-85
2023/03/21 07:20:53;;;;;;;51.17;18.83;;;;;;;;;;5023507;28;20398;-85
2023/03/21 07:23:21;;;;;;;59.22;21.20;;;;;;;;;;5033510;28;20068;-85
2023/03/21 07:25:47;;;;;;;56.80;19.35;;;;;;;;;;5016247;28;20037;-85
2023/03/21 07:28:14;;;;;;;60.13;20.38;;;;;;;;;;4999584;28;20045;-85
2023/03/21 07:30:40;;;;;;;53.80;18.98;;;;;;;;;;5012132;28;20056;-85
2023/03/21 07:33:06;;;;;;;58.25;19.48;;;;;;;;;;5016342;28;20561;-85
2023/03/21 07:35:33;;;;;;;57.22;21.42;;;;;;;;;;5003185;28;20033;-75
2023/03/21 07:37:59;;;;;;;59.42;21.02;;;;;;;;;;4991995;28;20051;-74
2023/03/21 07:40:25;;;;;;;46.50;16.50;;;;;;;;;;5003987;28;20231;-75
2023/03/21 07:42:51;;;;;;;57.00;19.80;;;;;;;;;;5005065;28;20045;-75
2023/03/21 07:45:20;;;;;;;53.85;18.88;;;;;;;;;;5020194;28;20036;-74
2023/03/21 07:47:47;;;;;;;51.22;18.05;;;;;;;;;;5020592;28;20134;-74
2023/03/21 07:50:14;;;;;;;51.60;19.65;;;;;;;;;;5020594;28;20064;-74
2023/03/21 07:52:40;;;;;;;42.33;18.40;;;;;;;;;;5003713;28;20072;-70
2023/03/21 07:55:07;;;;;;;50.00;18.38;;;;;;;;;;5019897;28;20060;-70
2023/03/21 07:57:33;;;;;;;49.20;19.17;;;;;;;;;;5021893;28;20052;-71
2023/03/21 07:59:59;;;;;;;52.28;20.05;;;;;;;;;;5017168;28;20045;-71
2023/03/21 08:02:25;;;;;;;50.40;18.88;;;;;;;;;;5021437;28;20142;-71
2023/03/21 08:04:52;;;;;;;42.50;18.15;;;;;;;;;;5020426;28;20087;-71
2023/03/21 08:07:18;;;;;;;51.65;18.55;;;;;;;;;;5018730;28;20045;-71
2023/03/21 08:09:44;;;;;;;42.13;18.45;;;;;;;;;;5019874;28;20037;-76
2023/03/21 08:12:10;;;;;;;41.03;19.00;;;;;;;;;;5001655;28;20056;-77
2023/03/21 08:14:42;;;;;;;38.05;16.48;;;;;;;;;;5020876;28;20079;-77
2023/03/21 08:17:09;;;;;;;44.22;18.00;;;;;;;;;;5019901;28;20440;-77
2023/03/21 08:19:36;;;;;;;39.70;18.00;;;;;;;;;;5019519;28;20033;-78
2023/03/21 08:22:04;;;;;;;39.85;18.17;;;;;;;;;;5019068;28;20140;-77
2023/03/21 08:24:30;;;;;;;35.45;16.88;;;;;;;;;;5002384;28;20167;-77
2023/03/21 08:26:57;;;;;;;34.30;15.85;;;;;;;;;;5001938;28;20053;-77
2023/03/21 08:29:24;;;;;;;31.27;14.88;;;;;;;;;;5004046;28;20543;-77
2023/03/21 08:31:50;;;;;;;26.90;13.52;;;;;;;;;;5004165;28;20130;-77
2023/03/21 08:34:16;;;;;;;32.45;15.35;;;;;;;;;;5000119;28;20458;-78
2023/03/21 08:36:43;;;;;;;22.92;13.10;;;;;;;;;;5019847;28;20099;-77
2023/03/21 08:39:09;;;;;;;28.48;13.32;;;;;;;;;;4986405;28;20754;-78
2023/03/21 08:41:36;;;;;;;29.52;14.02;;;;;;;;;;5006070;28;20115;-77
2023/03/21 08:44:02;;;;;;;29.15;13.57;;;;;;;;;;5018553;28;20045;-77
2023/03/21 08:46:29;;;;;;;21.80;11.02;;;;;;;;;;5007813;28;20163;-78
2023/03/21 08:48:55;;;;;;;22.38;12.40;;;;;;;;;;5006217;28;20057;-76
2023/03/21 08:51:21;;;;;;;22.60;12.70;;;;;;;;;;5006351;28;20046;-78
2023/03/21 08:53:50;;;;;;;20.17;11.50;;;;;;;;;;4982063;28;20049;-77
2023/03/21 08:56:16;;;;;;;23.90;11.98;;;;;;;;;;4997673;28;20044;-79
2023/03/21 08:58:43;;;;;;;21.52;11.50;;;;;;;;;;5004064;28;21319;-78
2023/03/21 09:01:10;;;;;;;18.73;11.10;;;;;;;;;;5017905;28;20086;-76
2023/03/21 09:03:39;;;;;;;19.15;10.85;;;;;;;;;;5014842;28;20067;-78
2023/03/21 09:06:09;;;;;;;21.35;11.32;;;;;;;;;;5002613;28;20060;-77
2023/03/21 09:08:35;;;;;;;18.45;11.23;;;;;;;;;;5016211;28;20175;-78
2023/03/21 09:11:01;;;;;;;19.05;9.52;;;;;;;;;;4999907;28;21956;-79
2023/03/21 09:13:27;;;;;;;17.33;10.55;;;;;;;;;;4989906;28;20049;-80
2023/03/21 09:15:56;;;;;;;21.83;11.48;;;;;;;;;;5006671;28;20839;-79
2023/03/21 09:18:43;;;;;;;20.17;10.73;;;;;;;;;;4996007;28;20036;-78
2023/03/21 09:21:11;;;;;;;17.48;10.63;;;;;;;;;;5002768;28;20041;-79
2023/03/21 09:23:38;;;;;;;21.55;12.18;;;;;;;;;;5015394;28;20052;-79
2023/03/21 09:26:05;;;;;;;18.48;11.05;;;;;;;;;;5018850;28;20128;-77
2023/03/21 09:28:31;;;;;;;17.35;10.88;;;;;;;;;;5003590;28;20049;-79
2023/03/21 09:31:01;;;;;;;15.88;8.85;;;;;;;;;;5016523;28;20468;-80
2023/03/21 09:33:28;;;;;;;15.77;10.02;;;;;;;;;;5002351;28;20045;-79
2023/03/21 09:35:54;;;;;;;16.75;11.32;;;;;;;;;;5018898;28;20037;-77
2023/03/21 09:38:21;;;;;;;18.77;10.80;;;;;;;;;;5000414;28;20449;-77
2023/03/21 09:41:02;;;;;;;20.27;11.55;;;;;;;;;;5019679;28;20049;-78
2023/03/21 09:43:29;;;;;;;16.45;11.43;;;;;;;;;;5019415;28;20077;-78
2023/03/21 09:46:04;;;;;;;14.27;8.88;;;;;;;;;;5008549;28;20044;-78
2023/03/21 09:48:56;;;;;;;15.75;11.18;;;;;;;;;;5021105;28;20138;-78
2023/03/21 09:51:24;;;;;;;14.95;9.35;;;;;;;;;;5004946;28;20045;-78
2023/03/21 09:53:53;;;;;;;19.65;11.90;;;;;;;;;;5006140;28;20036;-78
2023/03/21 09:56:20;;;;;;;24.52;13.13;;;;;;;;;;5020714;28;20088;-78
2023/03/21 09:58:51;;;;;;;20.05;12.48;;;;;;;;;;5020649;28;20065;-78
2023/03/21 10:01:31;;;;;;;20.52;13.48;;;;;;;;;;5018863;28;20056;-77
2023/03/21 10:04:04;;;;;;;26.73;14.02;;;;;;;;;;5000777;28;20417;-78
2023/03/21 10:06:30;;;;;;;30.15;14.85;;;;;;;;;;5016414;28;20053;-78
2023/03/21 10:09:06;;;;;;;26.73;15.63;;;;;;;;;;5017216;28;20075;-79
2023/03/21 10:11:40;;;;;;;23.40;15.05;;;;;;;;;;4999345;28;20075;-79
2023/03/21 10:14:13;;;;;;;35.17;18.02;;;;;;;;;;5018754;28;20085;-78
2023/03/21 10:16:44;;;;;;;24.15;16.67;;;;;;;;;;5004185;28;20082;-78
2023/03/21 10:19:14;;;;;;;31.88;18.73;;;;;;;;;;5020140;28;20063;-79
2023/03/21 10:21:42;;;;;;;36.10;19.20;;;;;;;;;;5019528;28;20044;-78
2023/03/21 10:24:13;;;;;;;33.50;18.90;;;;;;;;;;5018253;28;20078;-78
2023/03/21 10:26:39;;;;;;;35.42;19.15;;;;;;;;;;5020390;28;20041;-73
2023/03/21 10:29:06;;;;;;;32.83;19.27;;;;;;;;;;5001805;28;20040;-73
2023/03/21 10:31:32;;;;;;;26.08;14.85;;;;;;;;;;5020637;28;22052;-73
2023/03/21 10:34:02;;;;;;;31.08;19.58;;;;;;;;;;5020516;28;20049;-73
2023/03/21 10:36:29;;;;;;;29.67;20.00;;;;;;;;;;5017067;28;20064;-74
2023/03/21 10:38:59;;;;;;;38.15;19.30;;;;;;;;;;5017822;28;20075;-74
2023/03/21 10:41:25;;;;;;;31.83;18.08;;;;;;;;;;5018132;28;20045;-73
2023/03/21 10:44:13;;;;;;;26.65;16.95;;;;;;;;;;5017901;28;20162;-74
2023/03/21 10:46:49;;;;;;;33.25;19.48;;;;;;;;;;5021608;28;20041;-82
2023/03/21 10:49:15;;;;;;;25.70;16.92;;;;;;;;;;5021011;28;20079;-82
2023/03/21 10:51:42;;;;;;;30.55;18.48;;;;;;;;;;5005373;28;20055;-83
2023/03/21 10:54:11;;;;;;;34.47;20.90;;;;;;;;;;5020672;28;20082;-83
2023/03/21 10:56:39;;;;;;;31.88;19.30;;;;;;;;;;5019588;28;20102;-83
2023/03/21 10:59:07;;;;;;;35.05;21.80;;;;;;;;;;5025023;28;20057;-83
2023/03/21 11:01:38;;;;;;;41.15;26.20;;;;;;;;;;5022893;28;20060;-83
2023/03/21 11:04:15;;;;;;;37.28;25.77;;;;;;;;;;5024177;28;20469;-83
2023/03/21 11:06:43;;;;;;;43.97;25.38;;;;;;;;;;5010108;28;20042;-83
2023/03/21 11:09:14;;;;;;;42.78;27.42;;;;;;;;;;5015487;28;20084;-83
2023/03/21 11:11:41;;;;;;;44.65;26.80;;;;;;;;;;5021491;28;20045;-83
2023/03/21 11:14:23;;;;;;;50.22;28.75;;;;;;;;;;5021908;28;21000;-83
2023/03/21 11:16:50;;;;;;;46.72;29.90;;;;;;;;;;5023253;28;20500;-83
2023/03/21 11:19:18;;;;;;;40.65;25.25;;;;;;;;;;5006155;28;20049;-83
2023/03/21 11:21:45;;;;;;;41.88;28.42;;;;;;;;;;5023831;28;20198;-83
2023/03/21 11:24:15;;;;;;;44.20;28.58;;;;;;;;;;5007779;28;20392;-82
2023/03/21 11:26:43;;;;;;;49.72;27.73;;;;;;;;;;5024177;28;20045;-83
2023/03/21 11:29:19;;;;;;;39.40;25.75;;;;;;;;;;5023048;28;20171;-82
2023/03/21 11:31:45;;;;;;;38.88;25.23;;;;;;;;;;5020484;28;20976;-82
2023/03/21 11:34:23;;;;;;;46.92;27.30;;;;;;;;;;5028453;28;20041;-82
2023/03/21 11:36:50;;;;;;;45.90;23.98;;;;;;;;;;5021249;28;20099;-82
2023/03/21 11:39:31;;;;;;;43.40;28.13;;;;;;;;;;5022582;28;20037;-82
2023/03/21 11:41:57;;;;;;;38.25;24.88;;;;;;;;;;5039367;28;20194;-82
2023/03/21 11:44:28;;;;;;;38.33;25.48;;;;;;;;;;5022174;28;20517;-82
2023/03/21 11:46:54;;;;;;;35.53;22.85;;;;;;;;;;5021049;28;20052;-82
2023/03/21 11:49:21;;;;;;;37.80;22.63;;;;;;;;;;5022485;28;20041;-82
2023/03/21 11:52:00;;;;;;;35.85;23.02;;;;;;;;;;5021955;28;20056;-82
2023/03/21 11:54:35;;;;;;;34.85;21.60;;;;;;;;;;5021936;28;20037;-82
2023/03/21 11:57:09;;;;;;;32.20;20.88;;;;;;;;;;5020879;28;20041;-82
2023/03/21 11:59:54;;;;;;;34.83;22.30;;;;;;;;;;5022300;28;20060;-81
2023/03/21 12:02:29;;;;;;;29.67;19.15;;;;;;;;;;5022361;28;20040;-80
2023/03/21 12:05:02;;;;;;;23.83;16.38;;;;;;;;;;5010962;28;20812;-80
2023/03/21 12:07:51;;;;;;;23.23;14.30;;;;;;;;;;5024388;28;20576;-81
2023/03/21 12:10:24;;;;;;;22.00;12.88;;;;;;;;;;5033043;28;20056;-80
2023/03/21 12:12:55;;;;;;;24.15;13.85;;;;;;;;;;5016656;28;20053;-80
2023/03/21 12:15:21;;;;;;;22.98;13.85;;;;;;;;;;5033387;28;20059;-78
2023/03/21 12:18:13;;;;;;;18.75;13.02;;;;;;;;;;5020906;28;20045;-79
2023/03/21 12:20:40;;;;;;;19.20;12.15;;;;;;;;;;5024383;28;20773;-80
2023/03/21 12:23:06;;;;;;;21.20;13.75;;;;;;;;;;5023558;28;20145;-80
2023/03/21 12:25:34;;;;;;;24.10;13.73;;;;;;;;;;5006794;28;20053;-80
2023/03/21 12:28:24;;;;;;;18.92;12.02;;;;;;;;;;5020335;28;20417;-80
2023/03/21 12:31:09;;;;;;;18.52;11.85;;;;;;;;;;5005656;28;20195;-80
2023/03/21 12:33:42;;;;;;;18.27;11.75;;;;;;;;;;5019981;28;20459;-79
2023/03/21 12:36:27;;;;;;;13.93;9.77;;;;;;;;;;5018953;28;20083;-80
2023/03/21 12:38:57;;;;;;;15.77;9.77;;;;;;;;;;5003002;28;20041;-80
2023/03/21 12:41:26;;;;;;;14.15;9.85;;;;;;;;;;5001077;28;20544;-80
2023/03/21 12:43:55;;;;;;;21.10;9.98;;;;;;;;;;5018779;28;20064;-80
2023/03/21 12:46:44;;;;;;;18.60;10.40;;;;;;;;;;5019203;28;20076;-81
2023/03/21 12:49:14;;;;;;;13.95;8.68;;;;;;;;;;5019062;28;20106;-80
2023/03/21 12:51:43;;;;;;;19.42;10.95;;;;;;;;;;5004053;28;20389;-80
2023/03/21 12:54:28;;;;;;;18.00;10.63;;;;;;;;;;5019982;28;20281;-80
2023/03/21 12:56:57;;;;;;;18.30;9.75;;;;;;;;;;5020273;28;20048;-80
2023/03/21 12:59:26;;;;;;;17.20;10.30;;;;;;;;;;5031155;28;20095;-79
2023/03/21 13:01:54;;;;;;;20.70;11.50;;;;;;;;;;5020946;28;20104;-81
2023/03/21 13:04:45;;;;;;;15.65;8.65;;;;;;;;;;5020409;28;20532;-81
2023/03/21 13:07:15;;;;;;;17.80;10.55;;;;;;;;;;5002043;28;21959;-80
2023/03/21 13:09:41;;;;;;;20.05;10.70;;;;;;;;;;5019771;28;20042;-81
2023/03/21 13:12:21;;;;;;;15.90;9.75;;;;;;;;;;5004680;28;20195;-81
2023/03/21 13:15:06;;;;;;;15.82;10.93;;;;;;;;;;5017492;28;20424;-81
2023/03/21 13:17:44;;;;;;;20.45;11.90;;;;;;;;;;5017017;28;21969;-80
2023/03/21 13:20:20;;;;;;;19.70;11.52;;;;;;;;;;5019383;28;20599;-80
2023/03/21 13:22:46;;;;;;;14.25;9.77;;;;;;;;;;5020282;28;20067;-81
2023/03/21 13:25:19;;;;;;;16.50;11.15;;;;;;;;;;5019759;28;20041;-80
2023/03/21 13:27:53;;;;;;;18.08;11.25;;;;;;;;;;5002585;28;20041;-80
2023/03/21 13:30:21;;;;;;;20.75;10.77;;;;;;;;;;5001473;28;20083;-80
2023/03/21 13:32:51;;;;;;;21.00;12.48;;;;;;;;;;5017513;28;20167;-80
2023/03/21 13:35:20;;;;;;;17.15;11.98;;;;;;;;;;5017204;28;20493;-81
2023/03/21 13:37:52;;;;;;;17.27;10.77;;;;;;;;;;5004308;28;20057;-80
2023/03/21 13:40:27;;;;;;;20.05;11.63;;;;;;;;;;5018758;28;20040;-81
2023/03/21 13:42:58;;;;;;;20.00;11.35;;;;;;;;;;5019831;28;20144;-80
2023/03/21 13:45:48;;;;;;;16.65;10.65;;;;;;;;;;5004859;28;20102;-80
2023/03/21 13:48:31;;;;;;;19.40;11.05;;;;;;;;;;5024386;28;20070;-80
2023/03/21 13:51:05;;;;;;;13.02;9.88;;;;;;;;;;5034735;28;20079;-80
2023/03/21 13:53:44;;;;;;;17.58;10.07;;;;;;;;;;5029943;28;20052;-79
2023/03/21 13:56:16;;;;;;;18.00;10.63;;;;;;;;;;5028901;28;20041;-79
2023/03/21 13:58:45;;;;;;;15.98;10.38;;;;;;;;;;5022029;28;20056;-80
2023/03/21 14:01:16;;;;;;;18.20;10.38;;;;;;;;;;5008586;28;20049;-80
2023/03/21 14:03:44;;;;;;;14.70;10.35;;;;;;;;;;5001300;28;20901;-80
2023/03/21 14:06:11;;;;;;;19.63;10.23;;;;;;;;;;5002483;28;20486;-80
2023/03/21 14:08:39;;;;;;;17.63;9.70;;;;;;;;;;5001595;28;20045;-81
2023/03/21 14:11:07;;;;;;;12.82;8.98;;;;;;;;;;5002042;28;20052;-80
2023/03/21 14:13:33;;;;;;;16.20;9.80;;;;;;;;;;5018359;28;20070;-81
2023/03/21 14:16:05;;;;;;;17.52;11.50;;;;;;;;;;5015993;28;20045;-81
2023/03/21 14:18:39;;;;;;;16.02;9.90;;;;;;;;;;5019257;28;20098;-80
2023/03/21 14:21:05;;;;;;;18.92;10.15;;;;;;;;;;5018049;28;20048;-80
2023/03/21 14:23:32;;;;;;;19.05;10.43;;;;;;;;;;5007894;28;20055;-81
2023/03/21 14:25:58;;;;;;;15.07;9.32;;;;;;;;;;4985377;28;20080;-81
2023/03/21 14:28:26;;;;;;;20.70;9.85;;;;;;;;;;5014073;28;20053;-81